sensor_id;sensor_type;location;lat;lon;timestamp;pressure;altitude;pressure_sealevel;temperature;humidity
76594;BME280;65482;50.240;14.302;2023-03-14T00:01:57;97894.28;;;9.74;74.84
76594;BME280;65482;50.240;14.302;2023-03-14T00:04:32;97898.56;;;9.75;74.66
76594;BME280;65482;50.240;14.302;2023-03-14T00:07:10;97899.72;;;9.66;75.14
76594;BME280;65482;50.240;14.302;2023-03-14T00:09:54;97895.47;;;9.65;75.10
76594;BME280;65482;50.240;14.302;2023-03-14T00:12:24;97897.09;;;9.66;75.45
76594;BME280;65482;50.240;14.302;2023-03-14T00:15:13;97893.22;;;9.62;75.33
76594;BME280;65482;50.240;14.302;2023-03-14T00:17:44;97892.84;;;9.65;74.96
76594;BME280;65482;50.240;14.302;2023-03-14T00:20:42;97878.47;;;9.68;75.10
76594;BME280;65482;50.240;14.302;2023-03-14T00:23:19;97859.06;;;9.75;75.13
76594;BME280;65482;50.240;14.302;2023-03-14T00:25:44;97854.41;;;9.71;74.84
76594;BME280;65482;50.240;14.302;2023-03-14T00:28:10;97847.66;;;9.62;75.28
76594;BME280;65482;50.240;14.302;2023-03-14T00:30:37;97834.47;;;9.55;75.59
76594;BME280;65482;50.240;14.302;2023-03-14T00:33:03;97815.44;;;9.53;75.79
76594;BME280;65482;50.240;14.302;2023-03-14T00:35:28;97799.03;;;9.58;75.75
76594;BME280;65482;50.240;14.302;2023-03-14T00:37:54;97751.06;;;9.55;76.47
76594;BME280;65482;50.240;14.302;2023-03-14T00:40:20;97706.50;;;9.61;75.92
76594;BME280;65482;50.240;14.302;2023-03-14T00:42:46;97672.88;;;9.49;76.16
76594;BME280;65482;50.240;14.302;2023-03-14T00:45:11;97730.97;;;9.48;75.87
76594;BME280;65482;50.240;14.302;2023-03-14T00:47:37;97749.41;;;9.48;75.93
76594;BME280;65482;50.240;14.302;2023-03-14T00:50:03;97737.22;;;9.47;75.95
76594;BME280;65482;50.240;14.302;2023-03-14T00:52:29;97747.75;;;9.40;75.91
76594;BME280;65482;50.240;14.302;2023-03-14T00:54:54;97742.03;;;9.30;76.34
76594;BME280;65482;50.240;14.302;2023-03-14T00:57:25;97725.84;;;9.33;76.01
76594;BME280;65482;50.240;14.302;2023-03-14T00:59:51;97712.91;;;9.38;75.74
76594;BME280;65482;50.240;14.302;2023-03-14T01:02:21;97683.34;;;9.29;76.00
76594;BME280;65482;50.240;14.302;2023-03-14T01:04:48;97660.47;;;9.30;76.26
76594;BME280;65482;50.240;14.302;2023-03-14T01:07:14;97649.75;;;9.31;75.96
76594;BME280;65482;50.240;14.302;2023-03-14T01:09:40;97644.69;;;9.36;75.83
76594;BME280;65482;50.240;14.302;2023-03-14T01:12:06;97645.31;;;9.39;75.65
76594;BME280;65482;50.240;14.302;2023-03-14T01:14:31;97635.00;;;9.37;76.05
76594;BME280;65482;50.240;14.302;2023-03-14T01:16:57;97642.69;;;9.39;75.97
76594;BME280;65482;50.240;14.302;2023-03-14T01:19:29;97655.63;;;9.40;75.64
76594;BME280;65482;50.240;14.302;2023-03-14T01:21:55;97653.81;;;9.41;75.81
76594;BME280;65482;50.240;14.302;2023-03-14T01:24:21;97643.91;;;9.43;75.48
76594;BME280;65482;50.240;14.302;2023-03-14T01:26:46;97650.19;;;9.42;75.50
76594;BME280;65482;50.240;14.302;2023-03-14T01:29:12;97640.47;;;9.42;75.68
76594;BME280;65482;50.240;14.302;2023-03-14T01:31:38;97632.56;;;9.42;75.77
76594;BME280;65482;50.240;14.302;2023-03-14T01:34:04;97655.44;;;9.42;75.49
76594;BME280;65482;50.240;14.302;2023-03-14T01:36:30;97673.81;;;9.35;76.24
76594;BME280;65482;50.240;14.302;2023-03-14T01:38:55;97647.94;;;9.39;75.79
76594;BME280;65482;50.240;14.302;2023-03-14T01:41:24;97633.31;;;9.23;76.40
76594;BME280;65482;50.240;14.302;2023-03-14T01:43:50;97626.25;;;9.23;76.83
76594;BME280;65482;50.240;14.302;2023-03-14T01:49:21;97622.22;;;9.27;76.23
76594;BME280;65482;50.240;14.302;2023-03-14T01:56:56;97643.84;;;9.23;76.10
76594;BME280;65482;50.240;14.302;2023-03-14T01:59:23;97636.38;;;9.20;76.15
76594;BME280;65482;50.240;14.302;2023-03-14T02:01:50;97652.34;;;9.18;76.06
76594;BME280;65482;50.240;14.302;2023-03-14T02:04:17;97666.72;;;9.22;76.12
76594;BME280;65482;50.240;14.302;2023-03-14T02:06:59;97671.16;;;9.22;76.47
76594;BME280;65482;50.240;14.302;2023-03-14T02:09:25;97670.56;;;9.20;76.40
76594;BME280;65482;50.240;14.302;2023-03-14T02:11:52;97671.56;;;9.19;76.28
76594;BME280;65482;50.240;14.302;2023-03-14T02:14:27;97644.81;;;9.15;76.81
76594;BME280;65482;50.240;14.302;2023-03-14T02:16:54;97659.81;;;9.14;77.06
76594;BME280;65482;50.240;14.302;2023-03-14T02:20:12;97668.72;;;9.20;76.62
76594;BME280;65482;50.240;14.302;2023-03-14T02:22:12;97677.25;;;9.22;76.64
76594;BME280;65482;50.240;14.302;2023-03-14T02:27:16;97658.38;;;9.05;76.52
76594;BME280;65482;50.240;14.302;2023-03-14T02:29:49;97668.28;;;9.03;76.56
76594;BME280;65482;50.240;14.302;2023-03-14T02:32:18;97661.38;;;9.02;76.84
76594;BME280;65482;50.240;14.302;2023-03-14T02:34:47;97665.84;;;9.02;76.98
76594;BME280;65482;50.240;14.302;2023-03-14T02:37:14;97644.38;;;8.98;77.14
76594;BME280;65482;50.240;14.302;2023-03-14T02:39:43;97656.28;;;8.94;76.73
76594;BME280;65482;50.240;14.302;2023-03-14T02:42:12;97655.13;;;9.03;76.90
76594;BME280;65482;50.240;14.302;2023-03-14T02:44:56;97628.00;;;9.03;76.07
76594;BME280;65482;50.240;14.302;2023-03-14T02:47:29;97623.53;;;8.96;76.29
76594;BME280;65482;50.240;14.302;2023-03-14T02:50:09;97622.53;;;8.98;75.75
76594;BME280;65482;50.240;14.302;2023-03-14T02:52:35;97608.53;;;8.97;75.38
76594;BME280;65482;50.240;14.302;2023-03-14T02:55:01;97600.88;;;8.95;75.74
76594;BME280;65482;50.240;14.302;2023-03-14T02:57:27;97585.88;;;8.89;75.52
76594;BME280;65482;50.240;14.302;2023-03-14T02:59:53;97586.88;;;8.88;75.75
76594;BME280;65482;50.240;14.302;2023-03-14T03:02:19;97587.84;;;8.81;76.10
76594;BME280;65482;50.240;14.302;2023-03-14T03:04:44;97593.09;;;8.74;75.97
76594;BME280;65482;50.240;14.302;2023-03-14T03:07:10;97591.47;;;8.73;76.07
76594;BME280;65482;50.240;14.302;2023-03-14T03:09:35;97594.69;;;8.68;76.47
76594;BME280;65482;50.240;14.302;2023-03-14T03:12:01;97597.91;;;8.64;76.54
76594;BME280;65482;50.240;14.302;2023-03-14T03:14:27;97591.16;;;8.48;76.97
76594;BME280;65482;50.240;14.302;2023-03-14T03:16:53;97580.72;;;8.33;77.33
76594;BME280;65482;50.240;14.302;2023-03-14T03:19:18;97592.88;;;8.34;78.14
76594;BME280;65482;50.240;14.302;2023-03-14T03:21:44;97579.91;;;8.32;77.72
76594;BME280;65482;50.240;14.302;2023-03-14T03:24:10;97571.59;;;8.29;77.49
76594;BME280;65482;50.240;14.302;2023-03-14T03:26:36;97561.25;;;8.21;77.94
76594;BME280;65482;50.240;14.302;2023-03-14T03:29:02;97558.19;;;8.17;78.12
76594;BME280;65482;50.240;14.302;2023-03-14T03:31:28;97562.84;;;8.15;78.01
76594;BME280;65482;50.240;14.302;2023-03-14T03:33:54;97556.97;;;8.13;78.33
76594;BME280;65482;50.240;14.302;2023-03-14T03:36:21;97548.47;;;8.11;77.96
76594;BME280;65482;50.240;14.302;2023-03-14T03:38:47;97544.00;;;8.05;78.00
76594;BME280;65482;50.240;14.302;2023-03-14T03:41:13;97544.78;;;8.05;78.44
76594;BME280;65482;50.240;14.302;2023-03-14T03:43:39;97553.44;;;7.99;77.67
76594;BME280;65482;50.240;14.302;2023-03-14T03:46:06;97553.84;;;7.96;77.75
76594;BME280;65482;50.240;14.302;2023-03-14T03:48:32;97566.91;;;7.89;77.63
76594;BME280;65482;50.240;14.302;2023-03-14T03:50:58;97568.91;;;7.87;77.35
76594;BME280;65482;50.240;14.302;2023-03-14T03:53:23;97579.38;;;7.81;76.64
76594;BME280;65482;50.240;14.302;2023-03-14T03:55:49;97570.69;;;7.80;76.76
76594;BME280;65482;50.240;14.302;2023-03-14T03:58:15;97583.81;;;7.80;76.56
76594;BME280;65482;50.240;14.302;2023-03-14T04:00:41;97595.91;;;7.81;77.16
76594;BME280;65482;50.240;14.302;2023-03-14T04:03:06;97613.47;;;7.81;77.03
76594;BME280;65482;50.240;14.302;2023-03-14T04:05:32;97610.47;;;7.84;77.08
76594;BME280;65482;50.240;14.302;2023-03-14T04:08:00;97600.97;;;7.83;77.07
76594;BME280;65482;50.240;14.302;2023-03-14T04:10:26;97617.16;;;7.86;77.10
76594;BME280;65482;50.240;14.302;2023-03-14T04:12:51;97607.22;;;7.82;77.10
76594;BME280;65482;50.240;14.302;2023-03-14T04:15:18;97596.53;;;7.83;76.91
76594;BME280;65482;50.240;14.302;2023-03-14T04:17:43;97597.06;;;7.72;77.21
76594;BME280;65482;50.240;14.302;2023-03-14T04:20:10;97597.06;;;7.72;77.33
76594;BME280;65482;50.240;14.302;2023-03-14T04:22:38;97594.63;;;7.70;77.14
76594;BME280;65482;50.240;14.302;2023-03-14T04:25:05;97585.75;;;7.71;77.45
76594;BME280;65482;50.240;14.302;2023-03-14T04:27:31;97578.88;;;7.70;77.28
76594;BME280;65482;50.240;14.302;2023-03-14T04:29:57;97585.75;;;7.71;77.39
76594;BME280;65482;50.240;14.302;2023-03-14T04:32:23;97578.25;;;7.68;77.62
76594;BME280;65482;50.240;14.302;2023-03-14T04:34:48;97578.19;;;7.62;77.47
76594;BME280;65482;50.240;14.302;2023-03-14T04:37:14;97583.38;;;7.55;78.27
76594;BME280;65482;50.240;14.302;2023-03-14T04:39:40;97583.75;;;7.52;78.00
76594;BME280;65482;50.240;14.302;2023-03-14T04:42:06;97592.50;;;7.59;77.92
76594;BME280;65482;50.240;14.302;2023-03-14T04:44:32;97581.19;;;7.59;77.97
76594;BME280;65482;50.240;14.302;2023-03-14T04:46:57;97554.56;;;7.62;78.43
76594;BME280;65482;50.240;14.302;2023-03-14T04:49:24;97551.47;;;7.51;78.23
76594;BME280;65482;50.240;14.302;2023-03-14T04:51:49;97569.03;;;7.51;78.16
76594;BME280;65482;50.240;14.302;2023-03-14T04:54:17;97575.78;;;7.39;78.68
76594;BME280;65482;50.240;14.302;2023-03-14T04:56:42;97572.56;;;7.43;78.57
76594;BME280;65482;50.240;14.302;2023-03-14T04:59:08;97553.53;;;7.56;78.62
76594;BME280;65482;50.240;14.302;2023-03-14T05:01:34;97564.22;;;7.54;79.15
76594;BME280;65482;50.240;14.302;2023-03-14T05:04:00;97571.50;;;7.59;78.91
76594;BME280;65482;50.240;14.302;2023-03-14T05:06:26;97578.00;;;7.63;79.46
76594;BME280;65482;50.240;14.302;2023-03-14T05:08:52;97576.44;;;7.69;79.47
76594;BME280;65482;50.240;14.302;2023-03-14T05:11:18;97570.06;;;7.78;79.82
76594;BME280;65482;50.240;14.302;2023-03-14T05:13:44;97560.03;;;7.88;80.25
76594;BME280;65482;50.240;14.302;2023-03-14T05:16:10;97544.16;;;8.03;79.81
76594;BME280;65482;50.240;14.302;2023-03-14T05:18:37;97546.09;;;8.16;80.04
76594;BME280;65482;50.240;14.302;2023-03-14T05:21:03;97537.47;;;8.29;79.83
76594;BME280;65482;50.240;14.302;2023-03-14T05:23:30;97531.03;;;8.38;79.89
76594;BME280;65482;50.240;14.302;2023-03-14T05:25:55;97528.91;;;8.48;79.54
76594;BME280;65482;50.240;14.302;2023-03-14T05:28:22;97530.81;;;8.68;79.41
76594;BME280;65482;50.240;14.302;2023-03-14T05:30:48;97535.47;;;8.79;78.91
76594;BME280;65482;50.240;14.302;2023-03-14T05:33:14;97542.41;;;8.93;78.79
76594;BME280;65482;50.240;14.302;2023-03-14T05:35:39;97549.19;;;9.49;76.62
76594;BME280;65482;50.240;14.302;2023-03-14T05:38:07;97560.03;;;9.13;76.96
76594;BME280;65482;50.240;14.302;2023-03-14T05:40:34;97553.41;;;9.24;76.76
76594;BME280;65482;50.240;14.302;2023-03-14T05:42:59;97547.31;;;9.10;77.30
76594;BME280;65482;50.240;14.302;2023-03-14T05:45:25;97542.84;;;9.10;77.16
76594;BME280;65482;50.240;14.302;2023-03-14T05:47:51;97545.09;;;9.20;76.60
76594;BME280;65482;50.240;14.302;2023-03-14T05:50:17;97528.28;;;9.14;76.93
76594;BME280;65482;50.240;14.302;2023-03-14T05:52:43;97532.13;;;9.19;75.98
76594;BME280;65482;50.240;14.302;2023-03-14T05:55:16;97535.00;;;9.24;75.93
76594;BME280;65482;50.240;14.302;2023-03-14T05:57:46;97539.03;;;9.26;75.71
76594;BME280;65482;50.240;14.302;2023-03-14T06:00:22;97530.16;;;9.27;75.09
76594;BME280;65482;50.240;14.302;2023-03-14T06:02:48;97544.09;;;9.34;74.68
76594;BME280;65482;50.240;14.302;2023-03-14T06:05:18;97533.78;;;9.46;74.50
76594;BME280;65482;50.240;14.302;2023-03-14T06:07:55;97538.25;;;9.52;74.38
76594;BME280;65482;50.240;14.302;2023-03-14T06:13:35;97529.13;;;9.68;73.55
76594;BME280;65482;50.240;14.302;2023-03-14T07:06:04;97576.84;;;11.74;65.44
76594;BME280;65482;50.240;14.302;2023-03-14T07:21:25;97583.53;;;12.64;61.80
76594;BME280;65482;50.240;14.302;2023-03-14T07:31:56;97588.25;;;13.10;59.17
76594;BME280;65482;50.240;14.302;2023-03-14T07:39:20;97593.69;;;12.85;60.20
76594;BME280;65482;50.240;14.302;2023-03-14T07:50:06;97601.59;;;12.48;60.66
76594;BME280;65482;50.240;14.302;2023-03-14T07:57:50;97599.41;;;12.64;59.80
76594;BME280;65482;50.240;14.302;2023-03-14T08:01:43;97608.56;;;12.61;60.07
76594;BME280;65482;50.240;14.302;2023-03-14T08:07:59;97606.38;;;12.77;59.94
76594;BME280;65482;50.240;14.302;2023-03-14T08:15:38;97601.47;;;12.80;58.82
76594;BME280;65482;50.240;14.302;2023-03-14T08:19:19;97599.91;;;12.91;58.55
76594;BME280;65482;50.240;14.302;2023-03-14T08:26:57;97591.91;;;12.98;57.72
76594;BME280;65482;50.240;14.302;2023-03-14T10:23:53;97606.63;;;13.54;52.69
76594;BME280;65482;50.240;14.302;2023-03-14T10:32:10;97596.59;;;13.44;52.47
76594;BME280;65482;50.240;14.302;2023-03-14T10:35:06;97596.91;;;13.36;52.81
76594;BME280;65482;50.240;14.302;2023-03-14T10:37:59;97592.06;;;13.14;53.68
76594;BME280;65482;50.240;14.302;2023-03-14T10:40:39;97591.19;;;13.21;53.41
76594;BME280;65482;50.240;14.302;2023-03-14T10:55:44;97606.56;;;13.30;52.47
76594;BME280;65482;50.240;14.302;2023-03-14T11:51:39;97594.19;;;13.55;51.96
76594;BME280;65482;50.240;14.302;2023-03-14T12:30:58;97555.47;;;14.07;49.73
76594;BME280;65482;50.240;14.302;2023-03-14T13:00:58;97506.94;;;15.28;46.28
76594;BME280;65482;50.240;14.302;2023-03-14T13:24:04;97496.63;;;15.32;45.68
76594;BME280;65482;50.240;14.302;2023-03-14T13:29:27;97509.81;;;15.27;46.63
76594;BME280;65482;50.240;14.302;2023-03-14T13:32:58;97505.69;;;15.19;45.79
76594;BME280;65482;50.240;14.302;2023-03-14T13:36:44;97506.25;;;15.04;45.76
76594;BME280;65482;50.240;14.302;2023-03-14T13:49:28;97511.06;;;14.79;47.00
76594;BME280;65482;50.240;14.302;2023-03-14T13:55:04;97516.00;;;14.46;47.42
76594;BME280;65482;50.240;14.302;2023-03-14T13:57:56;97525.78;;;14.46;48.86
76594;BME280;65482;50.240;14.302;2023-03-14T14:00:26;97521.44;;;14.28;48.55
76594;BME280;65482;50.240;14.302;2023-03-14T14:10:08;97506.53;;;14.39;49.08
76594;BME280;65482;50.240;14.302;2023-03-14T14:16:49;97511.41;;;14.18;49.65
76594;BME280;65482;50.240;14.302;2023-03-14T14:24:17;97523.78;;;14.01;50.59
76594;BME280;65482;50.240;14.302;2023-03-14T14:26:54;97525.00;;;14.10;51.29
76594;BME280;65482;50.240;14.302;2023-03-14T14:34:01;97510.00;;;14.39;49.89
76594;BME280;65482;50.240;14.302;2023-03-14T14:44:30;97498.22;;;14.47;50.15
76594;BME280;65482;50.240;14.302;2023-03-14T15:02:58;97497.34;;;13.70;53.17
76594;BME280;65482;50.240;14.302;2023-03-14T15:05:47;97484.81;;;13.78;53.77
76594;BME280;65482;50.240;14.302;2023-03-14T15:08:25;97490.25;;;13.83;53.62
76594;BME280;65482;50.240;14.302;2023-03-14T15:11:32;97493.00;;;13.88;53.79
76594;BME280;65482;50.240;14.302;2023-03-14T15:17:14;97513.94;;;13.66;54.70
76594;BME280;65482;50.240;14.302;2023-03-14T15:19:55;97516.81;;;13.52;55.42
76594;BME280;65482;50.240;14.302;2023-03-14T15:22:24;97516.22;;;13.50;57.55
76594;BME280;65482;50.240;14.302;2023-03-14T15:24:50;97514.16;;;13.52;58.78
76594;BME280;65482;50.240;14.302;2023-03-14T15:27:17;97496.53;;;13.46;59.12
76594;BME280;65482;50.240;14.302;2023-03-14T15:29:43;97508.38;;;13.32;58.83
76594;BME280;65482;50.240;14.302;2023-03-14T15:32:11;97507.56;;;13.31;58.82
76594;BME280;65482;50.240;14.302;2023-03-14T15:34:37;97506.78;;;13.12;58.57
76594;BME280;65482;50.240;14.302;2023-03-14T15:37:04;97498.31;;;12.92;59.02
76594;BME280;65482;50.240;14.302;2023-03-14T15:39:36;97497.25;;;12.81;59.26
76594;BME280;65482;50.240;14.302;2023-03-14T15:48:32;97487.81;;;12.37;58.87
76594;BME280;65482;50.240;14.302;2023-03-14T15:50:58;97490.09;;;12.33;59.36
76594;BME280;65482;50.240;14.302;2023-03-14T15:53:24;97492.03;;;12.26;59.34
76594;BME280;65482;50.240;14.302;2023-03-14T15:55:49;97484.00;;;12.32;59.35
76594;BME280;65482;50.240;14.302;2023-03-14T15:58:24;97491.66;;;12.22;58.89
76594;BME280;65482;50.240;14.302;2023-03-14T16:01:29;97487.09;;;12.11;59.14
76594;BME280;65482;50.240;14.302;2023-03-14T16:04:12;97491.75;;;12.16;59.34
76594;BME280;65482;50.240;14.302;2023-03-14T16:08:02;97494.22;;;12.10;59.53
76594;BME280;65482;50.240;14.302;2023-03-14T16:18:11;97493.94;;;12.00;59.49
76594;BME280;65482;50.240;14.302;2023-03-14T16:21:11;97497.06;;;11.90;60.11
76594;BME280;65482;50.240;14.302;2023-03-14T16:24:40;97488.16;;;11.85;60.10
76594;BME280;65482;50.240;14.302;2023-03-14T16:27:38;97492.03;;;11.82;60.35
76594;BME280;65482;50.240;14.302;2023-03-14T16:30:57;97489.03;;;11.79;60.83
76594;BME280;65482;50.240;14.302;2023-03-14T16:34:25;97490.78;;;11.60;61.17
76594;BME280;65482;50.240;14.302;2023-03-14T16:37:06;97495.63;;;11.44;61.77
76594;BME280;65482;50.240;14.302;2023-03-14T16:39:58;97510.22;;;11.47;61.96
76594;BME280;65482;50.240;14.302;2023-03-14T16:43:09;97512.56;;;11.30;62.65
76594;BME280;65482;50.240;14.302;2023-03-14T16:46:35;97521.72;;;11.27;62.67
76594;BME280;65482;50.240;14.302;2023-03-14T16:49:46;97547.31;;;11.27;62.85
76594;BME280;65482;50.240;14.302;2023-03-14T16:52:53;97543.59;;;11.34;63.33
76594;BME280;65482;50.240;14.302;2023-03-14T16:56:01;97566.03;;;11.19;64.68
76594;BME280;65482;50.240;14.302;2023-03-14T16:58:47;97578.44;;;11.18;66.17
76594;BME280;65482;50.240;14.302;2023-03-14T17:05:16;97598.03;;;10.90;68.41
76594;BME280;65482;50.240;14.302;2023-03-14T17:08:19;97604.53;;;10.88;68.31
76594;BME280;65482;50.240;14.302;2023-03-14T17:11:04;97607.63;;;10.71;69.52
76594;BME280;65482;50.240;14.302;2023-03-14T17:13:56;97617.00;;;10.61;70.56
76594;BME280;65482;50.240;14.302;2023-03-14T17:16:35;97611.34;;;10.50;70.82
76594;BME280;65482;50.240;14.302;2023-03-14T17:19:31;97626.97;;;10.45;70.61
76594;BME280;65482;50.240;14.302;2023-03-14T17:22:24;97630.81;;;10.43;70.63
76594;BME280;65482;50.240;14.302;2023-03-14T17:25:05;97643.19;;;10.35;71.03
76594;BME280;65482;50.240;14.302;2023-03-14T17:27:38;97637.91;;;10.29;71.29
76594;BME280;65482;50.240;14.302;2023-03-14T17:30:09;97642.38;;;10.22;71.49
76594;BME280;65482;50.240;14.302;2023-03-14T17:32:41;97650.28;;;10.15;71.47
76594;BME280;65482;50.240;14.302;2023-03-14T17:35:35;97653.31;;;10.19;71.13
76594;BME280;65482;50.240;14.302;2023-03-14T17:38:23;97657.56;;;10.13;71.46
76594;BME280;65482;50.240;14.302;2023-03-14T17:41:21;97665.06;;;10.09;71.62
76594;BME280;65482;50.240;14.302;2023-03-14T17:44:15;97669.53;;;10.09;70.86
76594;BME280;65482;50.240;14.302;2023-03-14T17:46:47;97669.94;;;10.06;71.07
76594;BME280;65482;50.240;14.302;2023-03-14T17:49:26;97681.28;;;9.93;71.33
76594;BME280;65482;50.240;14.302;2023-03-14T17:52:16;97696.03;;;9.94;70.92
76594;BME280;65482;50.240;14.302;2023-03-14T17:55:10;97698.50;;;9.89;71.35
76594;BME280;65482;50.240;14.302;2023-03-14T17:58:09;97735.56;;;9.87;71.89
76594;BME280;65482;50.240;14.302;2023-03-14T18:00:54;97763.25;;;9.76;71.54
76594;BME280;65482;50.240;14.302;2023-03-14T18:04:14;97816.66;;;9.57;70.76
76594;BME280;65482;50.240;14.302;2023-03-14T18:06:55;97856.06;;;9.44;67.74
76594;BME280;65482;50.240;14.302;2023-03-14T18:09:38;97857.41;;;9.33;65.78
76594;BME280;65482;50.240;14.302;2023-03-14T18:15:53;97906.31;;;8.99;64.09
76594;BME280;65482;50.240;14.302;2023-03-14T18:18:57;97927.69;;;8.68;63.34
76594;BME280;65482;50.240;14.302;2023-03-14T18:21:51;97939.78;;;8.47;63.16
76594;BME280;65482;50.240;14.302;2023-03-14T18:24:19;97946.31;;;8.36;63.97
76594;BME280;65482;50.240;14.302;2023-03-14T18:26:46;97956.31;;;8.26;62.79
76594;BME280;65482;50.240;14.302;2023-03-14T18:29:13;97982.31;;;8.06;63.48
76594;BME280;65482;50.240;14.302;2023-03-14T18:32:00;98002.69;;;8.04;62.85
76594;BME280;65482;50.240;14.302;2023-03-14T18:34:55;98017.91;;;7.94;63.51
76594;BME280;65482;50.240;14.302;2023-03-14T18:37:45;98036.91;;;7.81;63.37
76594;BME280;65482;50.240;14.302;2023-03-14T18:40:27;98057.25;;;7.64;63.77
76594;BME280;65482;50.240;14.302;2023-03-14T18:43:18;98069.75;;;7.54;63.83
76594;BME280;65482;50.240;14.302;2023-03-14T18:46:10;98075.38;;;7.51;62.74
76594;BME280;65482;50.240;14.302;2023-03-14T18:48:55;98101.03;;;7.41;62.64
76594;BME280;65482;50.240;14.302;2023-03-14T18:51:39;98116.31;;;7.37;62.93
76594;BME280;65482;50.240;14.302;2023-03-14T18:54:33;98127.44;;;7.39;62.67
76594;BME280;65482;50.240;14.302;2023-03-14T18:57:14;98136.97;;;7.32;61.57
76594;BME280;65482;50.240;14.302;2023-03-14T18:59:53;98156.69;;;7.28;61.15
76594;BME280;65482;50.240;14.302;2023-03-14T19:02:35;98173.47;;;7.19;61.11
76594;BME280;65482;50.240;14.302;2023-03-14T19:05:04;98183.34;;;7.08;61.34
76594;BME280;65482;50.240;14.302;2023-03-14T19:07:52;98199.41;;;7.05;60.73
76594;BME280;65482;50.240;14.302;2023-03-14T19:10:27;98211.75;;;6.96;61.37
76594;BME280;65482;50.240;14.302;2023-03-14T19:13:02;98214.38;;;6.96;61.44
76594;BME280;65482;50.240;14.302;2023-03-14T19:15:44;98228.78;;;6.92;61.36
76594;BME280;65482;50.240;14.302;2023-03-14T19:18:18;98232.88;;;6.95;60.68
76594;BME280;65482;50.240;14.302;2023-03-14T19:21:08;98242.06;;;6.91;60.80
76594;BME280;65482;50.240;14.302;2023-03-14T19:23:54;98243.88;;;6.82;60.27
76594;BME280;65482;50.240;14.302;2023-03-14T19:26:23;98249.63;;;6.77;60.95
76594;BME280;65482;50.240;14.302;2023-03-14T19:29:06;98261.91;;;6.77;60.52
76594;BME280;65482;50.240;14.302;2023-03-14T19:31:51;98277.97;;;6.74;60.82
76594;BME280;65482;50.240;14.302;2023-03-14T19:34:56;98303.34;;;6.73;60.06
76594;BME280;65482;50.240;14.302;2023-03-14T19:37:45;98313.69;;;6.67;60.68
76594;BME280;65482;50.240;14.302;2023-03-14T19:40:20;98326.78;;;6.59;60.25
76594;BME280;65482;50.240;14.302;2023-03-14T19:42:54;98331.53;;;6.55;60.95
76594;BME280;65482;50.240;14.302;2023-03-14T19:45:33;98343.00;;;6.46;60.27
76594;BME280;65482;50.240;14.302;2023-03-14T19:48:20;98357.03;;;6.36;60.82
76594;BME280;65482;50.240;14.302;2023-03-14T19:51:09;98368.00;;;6.32;60.98
76594;BME280;65482;50.240;14.302;2023-03-14T19:53:49;98379.63;;;6.21;59.84
76594;BME280;65482;50.240;14.302;2023-03-14T19:56:45;98381.56;;;6.11;59.19
76594;BME280;65482;50.240;14.302;2023-03-14T20:02:57;98411.47;;;6.08;57.96
76594;BME280;65482;50.240;14.302;2023-03-14T20:05:49;98425.38;;;6.01;57.30
76594;BME280;65482;50.240;14.302;2023-03-14T20:08:23;98426.94;;;5.93;57.50
76594;BME280;65482;50.240;14.302;2023-03-14T20:10:49;98436.09;;;5.89;57.21
76594;BME280;65482;50.240;14.302;2023-03-14T20:13:20;98456.63;;;5.76;57.31
76594;BME280;65482;50.240;14.302;2023-03-14T20:16:02;98464.63;;;5.74;56.33
76594;BME280;65482;50.240;14.302;2023-03-14T20:18:55;98472.44;;;5.66;57.01
76594;BME280;65482;50.240;14.302;2023-03-14T20:22:04;98495.03;;;5.67;58.02
76594;BME280;65482;50.240;14.302;2023-03-14T20:24:44;98500.03;;;5.61;57.88
76594;BME280;65482;50.240;14.302;2023-03-14T20:27:35;98506.25;;;5.60;58.18
76594;BME280;65482;50.240;14.302;2023-03-14T20:30:12;98502.97;;;5.57;58.87
76594;BME280;65482;50.240;14.302;2023-03-14T20:32:50;98514.41;;;5.56;58.68
76594;BME280;65482;50.240;14.302;2023-03-14T20:35:24;98526.66;;;5.56;59.25
76594;BME280;65482;50.240;14.302;2023-03-14T20:38:05;98536.75;;;5.51;58.36
76594;BME280;65482;50.240;14.302;2023-03-14T20:40:44;98541.47;;;5.47;58.46
76594;BME280;65482;50.240;14.302;2023-03-14T20:43:13;98548.66;;;5.45;58.10
76594;BME280;65482;50.240;14.302;2023-03-14T20:45:58;98548.66;;;5.45;58.17
76594;BME280;65482;50.240;14.302;2023-03-14T20:48:54;98565.16;;;5.46;58.23
76594;BME280;65482;50.240;14.302;2023-03-14T20:51:53;98569.41;;;5.47;58.49
76594;BME280;65482;50.240;14.302;2023-03-14T20:54:35;98582.19;;;5.50;59.32
76594;BME280;65482;50.240;14.302;2023-03-14T20:57:25;98584.69;;;5.51;59.19
76594;BME280;65482;50.240;14.302;2023-03-14T21:00:14;98588.03;;;5.44;59.67
76594;BME280;65482;50.240;14.302;2023-03-14T21:02:55;98589.31;;;5.40;59.34
76594;BME280;65482;50.240;14.302;2023-03-14T21:05:30;98596.50;;;5.37;59.33
76594;BME280;65482;50.240;14.302;2023-03-14T21:08:22;98601.72;;;5.37;59.33
76594;BME280;65482;50.240;14.302;2023-03-14T21:11:09;98607.97;;;5.45;59.15
76594;BME280;65482;50.240;14.302;2023-03-14T21:13:44;98617.47;;;5.46;59.50
76594;BME280;65482;50.240;14.302;2023-03-14T21:16:33;98619.94;;;5.47;60.09
76594;BME280;65482;50.240;14.302;2023-03-14T21:19:06;98623.66;;;5.45;60.45
76594;BME280;65482;50.240;14.302;2023-03-14T21:21:48;98628.91;;;5.45;60.71
76594;BME280;65482;50.240;14.302;2023-03-14T21:24:29;98636.91;;;5.43;59.80
76594;BME280;65482;50.240;14.302;2023-03-14T21:27:06;98641.38;;;5.51;60.11
76594;BME280;65482;50.240;14.302;2023-03-14T21:29:50;98647.88;;;5.47;59.65
76594;BME280;65482;50.240;14.302;2023-03-14T21:32:47;98654.47;;;5.51;59.36
76594;BME280;65482;50.240;14.302;2023-03-14T21:35:22;98652.50;;;6.07;58.18
76594;BME280;65482;50.240;14.302;2023-03-14T21:38:08;98670.53;;;5.38;58.91
76594;BME280;65482;50.240;14.302;2023-03-14T21:41:05;98664.53;;;5.28;59.49
76594;BME280;65482;50.240;14.302;2023-03-14T21:43:42;98671.56;;;5.27;59.40
76594;BME280;65482;50.240;14.302;2023-03-14T21:46:18;98668.13;;;5.27;59.06